Pagina principale
METAR-TAF:

METAR-TAF

Aeroporti :

Biserta, Tunisia

latitudine: 37-15N, longitudine: 009-48E, altezza: 5 m

Osservazione

Il bollettino è stato emesso 6 ore e 55 minuti fa, alle 05:00 UTC
Vento 7 kt da ovest
Temperature 22°C
Umidità 88%
Pressione 1012 hPa
Visibilità 10 km o più
Nubi sparse ad un'altezza di 1600 ft
Poco nuvoloso ad un'altezza di 2600 ft, Cumulonembo.
Nuvoloso ad un'altezza di 3000 ft
temporale

METAR: DTTB 210500Z 26007KT 9999 TS SCT016 FEW026CB BKN030 22/20 Q1012 CB/E

Ora: 12:55 (11:55 UTC)


TAF: mancante

Osservazioni e previsioni meteorologiche di più di 4000 aeroporti (messaggi METAR e TAF).

Le stazioni disponibili sono rappresentate dai dischi gialli e rossi sulla carta.

Puntare il mouse per vedere il nome della stazione.

Clicca sopra per visualizzare le osservazioni e previsioni meteorologiche.

Per cambiare la mappa : fare clic sui pulsanti verdi con una croce nera per ingrandire, il pulsante verde con un trattino per diminuire, o sulla freccia verde per le mappe adiacenti.


METAR-TAF: